Terminal Aerodrome Forecast
Issued by NWS

Home | Current Version | Previous Version | Graphics & Text | Print | Product List | Glossary On
Versions: 1 2 3 4 5 6 7 8 9 10 11 12 13 14 15 16 17
000
FTUS43 KMPX 222300
TAFAXN
TAF
KAXN 222336Z 2300/2324 16013KT 6SM -SHRA BR SCT020 OVC040
      TEMPO 2301/2303 4SM SHRA BKN020
     FM230300 19009KT P6SM SCT015 BKN050
     FM230700 24006KT P6SM SCT050
     FM231400 25010KT P6SM SKC=

USA.gov is the U.S. government's official web portal to all federal, state and local government web resources and services.